N118ER WAQT-WAQC

Flight info

Callsign N118ER
Flight time 0h 34m
Altitude 13000
Route SOSVO
Aircraft TBM8/L-SDFGRWY/S

Departure

Time 2026-05-05 10:15
Airport Kalimarau Airport (WAQT)

Arrival

Time 2026-05-05 10:50
Airport Maratua Airport (WAQC)
Time Latitude Longitude Altitude Speed Heading
2026-05-05 10:07 2.14906 117.43339 34 ft 0 kts 103°
2026-05-05 10:12 2.14893 117.43343 34 ft 8 kts 225°
2026-05-05 10:12 2.14892 117.43331 34 ft 0 kts 287°
2026-05-05 10:12 2.14924 117.43295 33 ft 14 kts 345°
2026-05-05 10:12 2.15022 117.43283 33 ft 14 kts 291°
2026-05-05 10:13 2.15047 117.43186 31 ft 18 kts 283°
2026-05-05 10:13 2.14921 117.43112 32 ft 29 kts 193°
2026-05-05 10:13 2.14772 117.43086 33 ft 10 kts 245°
2026-05-05 10:13 2.14782 117.43075 33 ft 1 kts 14°
2026-05-05 10:14 2.14794 117.43077 33 ft 14 kts 12°
2026-05-05 10:14 2.15088 117.43148 31 ft 72 kts 13°
2026-05-05 10:15 2.15675 117.43264 221 ft 95 kts 12°
2026-05-05 10:15 2.16398 117.43385 490 ft 117 kts
2026-05-05 10:15 2.17254 117.43533 842 ft 127 kts 11°
2026-05-05 10:15 2.18091 117.43750 1297 ft 130 kts 31°
2026-05-05 10:16 2.18649 117.44541 1578 ft 145 kts 70°
2026-05-05 10:16 2.18981 117.45458 2164 ft 135 kts 68°
2026-05-05 10:16 2.19019 117.46372 2660 ft 137 kts 100°
2026-05-05 10:16 2.19002 117.47287 3197 ft 129 kts 90°
2026-05-05 10:17 2.18986 117.48215 3498 ft 145 kts 88°
2026-05-05 10:17 2.18990 117.49291 3711 ft 161 kts 89°
2026-05-05 10:17 2.18985 117.50457 3981 ft 174 kts 89°
2026-05-05 10:17 2.18983 117.51748 4001 ft 196 kts 90°
2026-05-05 10:18 2.18974 117.53160 4009 ft 209 kts 91°
2026-05-05 10:18 2.18619 117.54605 4014 ft 220 kts 110°
2026-05-05 10:18 2.18046 117.56036 4065 ft 220 kts 111°
2026-05-05 10:18 2.17521 117.57344 4795 ft 189 kts 111°
2026-05-05 10:19 2.17027 117.58587 4992 ft 201 kts 111°
2026-05-05 10:19 2.16502 117.59942 4995 ft 215 kts 108°
2026-05-05 10:19 2.16160 117.61433 5004 ft 224 kts 99°
2026-05-05 10:19 2.16054 117.62986 5008 ft 224 kts 90°
2026-05-05 10:20 2.16057 117.64536 5011 ft 223 kts 89°
2026-05-05 10:20 2.16069 117.66089 5012 ft 225 kts 89°
2026-05-05 10:20 2.16081 117.67653 5013 ft 224 kts 89°
2026-05-05 10:20 2.16092 117.69207 5012 ft 222 kts 89°
2026-05-05 10:21 2.16102 117.70755 5013 ft 222 kts 89°
2026-05-05 10:21 2.16116 117.72298 5012 ft 222 kts 89°
2026-05-05 10:21 2.16135 117.73839 5011 ft 222 kts 89°
2026-05-05 10:21 2.16147 117.75386 5012 ft 223 kts 89°
2026-05-05 10:22 2.16161 117.76928 5011 ft 221 kts 89°
2026-05-05 10:22 2.16177 117.78461 5010 ft 220 kts 89°
2026-05-05 10:22 2.16191 117.79995 5010 ft 219 kts 89°
2026-05-05 10:22 2.16204 117.81524 5009 ft 220 kts 89°
2026-05-05 10:23 2.16219 117.83048 5008 ft 219 kts 89°
2026-05-05 10:23 2.16234 117.84557 5009 ft 221 kts 89°
2026-05-05 10:23 2.16251 117.86092 5009 ft 221 kts 89°
2026-05-05 10:23 2.16268 117.87623 5008 ft 220 kts 89°
2026-05-05 10:24 2.16284 117.89140 5008 ft 218 kts 89°
2026-05-05 10:24 2.16298 117.90664 5008 ft 220 kts 89°
2026-05-05 10:24 2.16313 117.92180 5007 ft 218 kts 89°
2026-05-05 10:24 2.16327 117.93701 5007 ft 219 kts 89°
2026-05-05 10:25 2.16344 117.95225 5008 ft 220 kts 89°
2026-05-05 10:25 2.16357 117.96755 5008 ft 219 kts 89°
2026-05-05 10:25 2.16369 117.98282 5008 ft 220 kts 89°
2026-05-05 10:25 2.16382 117.99811 5008 ft 220 kts 89°
2026-05-05 10:26 2.16396 118.01346 5008 ft 221 kts 89°
2026-05-05 10:26 2.16410 118.02881 5008 ft 221 kts 89°
2026-05-05 10:26 2.16425 118.04414 5008 ft 221 kts 89°
2026-05-05 10:26 2.16438 118.05949 5009 ft 221 kts 89°
2026-05-05 10:27 2.16453 118.07490 5009 ft 222 kts 89°
2026-05-05 10:27 2.16470 118.09029 5009 ft 222 kts 89°
2026-05-05 10:27 2.16484 118.10573 5009 ft 221 kts 89°
2026-05-05 10:27 2.16499 118.12109 5009 ft 221 kts 89°
2026-05-05 10:28 2.16516 118.13626 5008 ft 221 kts 89°
2026-05-05 10:28 2.16532 118.15161 5008 ft 221 kts 89°
2026-05-05 10:28 2.16548 118.16691 5007 ft 220 kts 89°
2026-05-05 10:28 2.16565 118.18223 5007 ft 219 kts 89°
2026-05-05 10:29 2.16583 118.19749 5006 ft 221 kts 89°
2026-05-05 10:29 2.16601 118.21282 5007 ft 220 kts 89°
2026-05-05 10:29 2.16620 118.22817 5007 ft 221 kts 89°
2026-05-05 10:29 2.16635 118.24357 5008 ft 223 kts 89°
2026-05-05 10:30 2.16652 118.25907 5008 ft 221 kts 89°
2026-05-05 10:30 2.16667 118.27446 5008 ft 221 kts 89°
2026-05-05 10:30 2.16683 118.28985 5007 ft 221 kts 89°
2026-05-05 10:30 2.16699 118.30520 5007 ft 220 kts 89°
2026-05-05 10:31 2.16714 118.32053 5007 ft 221 kts 89°
2026-05-05 10:31 2.16732 118.33586 5007 ft 221 kts 89°
2026-05-05 10:31 2.16748 118.35126 5007 ft 222 kts 89°
2026-05-05 10:31 2.16761 118.36659 5007 ft 220 kts 89°
2026-05-05 10:32 2.16776 118.38194 5007 ft 221 kts 89°
2026-05-05 10:32 2.16795 118.39728 5007 ft 220 kts 89°
2026-05-05 10:32 2.16811 118.41257 5006 ft 220 kts 89°
2026-05-05 10:32 2.16826 118.42788 5006 ft 220 kts 89°
2026-05-05 10:33 2.16840 118.44314 5005 ft 220 kts 89°
2026-05-05 10:33 2.17281 118.45716 4942 ft 222 kts 40°
2026-05-05 10:33 2.18654 118.45740 4245 ft 199 kts 316°
2026-05-05 10:33 2.18837 118.44534 3699 ft 169 kts 257°
2026-05-05 10:34 2.18641 118.43434 3272 ft 152 kts 262°
2026-05-05 10:34 2.18465 118.42313 3240 ft 176 kts 261°
2026-05-05 10:34 2.18220 118.41064 3260 ft 190 kts 258°
2026-05-05 10:34 2.17906 118.39742 3237 ft 200 kts 256°
2026-05-05 10:35 2.17556 118.38396 3339 ft 201 kts 254°
2026-05-05 10:35 2.17195 118.37047 3429 ft 201 kts 258°
2026-05-05 10:35 2.17049 118.35642 3374 ft 207 kts 269°
2026-05-05 10:35 2.17108 118.34256 3519 ft 194 kts 231°
2026-05-05 10:36 2.16387 118.34677 3434 ft 154 kts 79°
2026-05-05 10:36 2.16463 118.35643 3341 ft 125 kts 88°
2026-05-05 10:36 2.16564 118.36513 3314 ft 138 kts 79°
2026-05-05 10:36 2.16690 118.37481 3433 ft 152 kts 82°
2026-05-05 10:37 2.16798 118.38506 3081 ft 140 kts 83°
2026-05-05 10:37 2.16926 118.39448 3085 ft 142 kts 80°
2026-05-05 10:37 2.17121 118.40458 3079 ft 156 kts 77°
2026-05-05 10:37 2.17370 118.41553 3050 ft 168 kts 76°
2026-05-05 10:38 2.17661 118.42709 3100 ft 176 kts 74°
2026-05-05 10:38 2.17924 118.43913 3198 ft 178 kts 89°
2026-05-05 10:38 2.17858 118.45166 3168 ft 185 kts 92°
2026-05-05 10:38 2.17778 118.46461 3045 ft 192 kts 100°
2026-05-05 10:39 2.17265 118.47688 2450 ft 181 kts 138°
2026-05-05 10:39 2.16605 118.48588 2136 ft 156 kts 113°
2026-05-05 10:39 2.15922 118.49516 2018 ft 159 kts 130°
2026-05-05 10:39 2.15156 118.50260 1940 ft 160 kts 135°
2026-05-05 10:40 2.14437 118.51014 1771 ft 139 kts 126°
2026-05-05 10:40 2.13923 118.51945 1649 ft 155 kts 109°
2026-05-05 10:40 2.13626 118.52899 1485 ft 141 kts 106°
2026-05-05 10:40 2.13326 118.53758 1399 ft 125 kts 107°
2026-05-05 10:41 2.12993 118.54579 1291 ft 130 kts 109°
2026-05-05 10:41 2.12800 118.55427 1247 ft 129 kts 88°
2026-05-05 10:41 2.13020 118.56283 1291 ft 130 kts 56°
2026-05-05 10:41 2.13681 118.56912 1250 ft 124 kts 33°
2026-05-05 10:42 2.15122 118.57828 1283 ft 125 kts 28°
2026-05-05 10:42 2.15871 118.58207 1237 ft 126 kts 25°
2026-05-05 10:42 2.16753 118.58541 1243 ft 129 kts 18°
2026-05-05 10:43 2.17397 118.58744 1103 ft 130 kts 17°
2026-05-05 10:43 2.18396 118.58976 1111 ft 149 kts 14°
2026-05-05 10:43 2.19247 118.59157 1204 ft 113 kts 13°
2026-05-05 10:43 2.19977 118.59225 1147 ft 105 kts 339°
2026-05-05 10:44 2.20745 118.59258 1063 ft 129 kts 14°
2026-05-05 10:44 2.21642 118.59422 1114 ft 122 kts 358°
2026-05-05 10:44 2.22330 118.59002 1121 ft 120 kts 299°
2026-05-05 10:44 2.22414 118.58470 1233 ft 100 kts 257°
2026-05-05 10:45 2.21940 118.58296 1053 ft 107 kts 124°
2026-05-05 10:45 2.21797 118.59142 1021 ft 120 kts 27°
2026-05-05 10:45 2.21906 118.58592 822 ft 153 kts 204°
2026-05-05 10:45 2.20999 118.58748 754 ft 124 kts 157°
2026-05-05 10:46 2.20279 118.59302 172 ft 151 kts 131°
2026-05-05 10:46 2.19626 118.60049 52 ft 136 kts 131°
2026-05-05 10:46 2.19017 118.60770 224 ft 140 kts 128°
2026-05-05 10:46 2.18385 118.61569 481 ft 142 kts 123°
2026-05-05 10:47 2.17935 118.62345 576 ft 139 kts 117°
2026-05-05 10:47 2.17432 118.63238 581 ft 140 kts 115°
2026-05-05 10:47 2.17106 118.64082 529 ft 127 kts 110°
2026-05-05 10:47 2.16463 118.64520 593 ft 131 kts 199°
2026-05-05 10:48 2.16400 118.63822 664 ft 114 kts 311°
2026-05-05 10:48 2.16939 118.63196 676 ft 120 kts 311°
2026-05-05 10:48 2.17336 118.62784 695 ft 89 kts 307°
2026-05-05 10:48 2.17740 118.62219 598 ft 108 kts 309°
2026-05-05 10:49 2.18201 118.61681 453 ft 92 kts 311°
2026-05-05 10:49 2.18592 118.61226 326 ft 87 kts 311°
2026-05-05 10:49 2.19023 118.60736 166 ft 98 kts 313°
2026-05-05 10:49 2.19448 118.60265 28 ft 76 kts 311°
2026-05-05 10:50 2.19694 118.59983 28 ft 43 kts 311°
2026-05-05 10:50 2.19837 118.59818 32 ft 34 kts 310°
2026-05-05 10:50 2.19890 118.59714 34 ft 5 kts 234°
2026-05-05 10:50 2.19831 118.59738 33 ft 22 kts 143°
2026-05-05 10:51 2.19747 118.59778 29 ft 7 kts 148°
2026-05-05 10:51 2.19712 118.59776 28 ft 0 kts 239°